LPCC weather

Dr. Nélio Mendonça Hospital Heliport
Funchal, Autonomous Region of Madeira, Portugal

Public forecast

Using degrees Celsius for public forecast. Weather courtesy of forecast.io.

Closest aviation weather report (METAR) to Dr. Nélio Mendonça Hospital Heliport

Closest report is Madeira Airport, 8.1 nm (15.0 km) ENE. Retrieved 2020/07/10 22:00 UTC (5 minutes ago):

LPMA 102200Z 36020KT 320V020 9999 SCT013 22/17 Q1016

Closest aviation forecast (TAF) to Dr. Nélio Mendonça Hospital Heliport

Closest forecast is Madeira Airport, 8.1 nm (15.0 km) ENE. Retrieved 2020/07/10 18:18 UTC (4 hours ago):

TAF LPMA 101700Z 1018/1118 02015KT 9999 SCT016 TEMPO 1018/1118 02022G35KT